Belgrade, MO (63622)

6:49 PM CST on February 21, 2018 (GMT -0600)
B Nixon, Hopewell | | Change Station
Active Advisory: Winter Weather Advisory

Elev 853 ft 37.89 °N, 90.70 °W | Updated 25 seconds ago

Ice Pellets
Ice Pellets
28.8 °F
Feels Like 24 °F
N
4.2
Wind Variable Wind from NNW

Today
High -- | Low -- °F
--% Chance of Precip.
Yesterday
High -- | Low -- °F
Precip. -- in
Pressure 30.49 in
Visibility 2.0 miles
Clouds Overcast 400 ft
Windchill 24 °F
Dew Point 29 °F
Humidity 99%
Rainfall 0.40 in
Snow Depth Not available.
6:45 AM 5:48 PM
Waxing Crescent, 36% visible
SPECI KFAM 220015Z AUTO 36009G15KT 2SM UP BR OVC004 M02/M02 A3049 RMK AO2 P0000 FZRANO
Pressure 30.49 in
Visibility 2.0 miles
Clouds Overcast 400 ft
Windchill 24 °F
Dew Point 29 °F
Humidity 99%
Rainfall 0.40 in
Snow Depth Not available.
6:45 AM 5:48 PM
Waxing Crescent, 36% visible
SPECI KFAM 220015Z AUTO 36009G15KT 2SM UP BR OVC004 M02/M02 A3049 RMK AO2 P0000 FZRANO

Get Your Daily Forecast Email!

Thanks for signing up!

Be on the lookout for a verification email in your inbox.

You'll start receiving severe weather alerts in your inbox..

×

10-Day Weather Forecast

Almanac

Astronomy

Feb. 21, 2018 Rise Set
Actual Time
Civil Twilight
Nautical Twilight
Astronomical Twilight
Moon
Length of Visible Light
Length of Day
Tomorrow will be .
, % of the Moon is Illuminated

Today's Extremes

State Highs State Lows

Community

WunderPhotos

Category 6

Welcome to Category 6. This is the collective home for Weather Underground's featured writeups by Dr. Jeff Masters (right), Bob Henson (left), Chris Burt, and other regular contributors.

Nearby

Air Quality

  Air Quality AQ Index Pollutant
Not available.

Snow Depth

Station Depth Elevation

Earthquake Activity

City Distance Mag. Time & Date
Minimum magnitude displayed is 2.5.

Coastal Water Temperatures

Place Temperature

Stations

Nearby Weather Stations

Station Location Temp. Windchill Dew Point Humidity Wind Precip. Elev Updated Type
                   

Watches & Warnings

Winter Weather Advisory
Issued: 3:38 PM CST Feb. 21, 2018 – National Weather Service

... Winter Weather Advisory remains in effect until noon CST
Thursday...

* what... freezing rain. Additional ice accumulations of up to
two tenths of an inch are expected.

* Where... portions of east central and southeast Missouri and
southwest Illinois.

* When... until noon CST Thursday.

* Additional details... the ice will result in difficult travel
conditions.

Precautionary/preparedness actions...

A Winter Weather Advisory means that periods of freezing rain or
freezing drizzle will cause travel difficulties. Be prepared for
slippery roads. Slow down and use caution while driving. In
Illinois, call 1-800-452-4368 for Road information. In Missouri,
call 1-888-275-6636 for Road information.